createdAt,value
2023-04-23T00:02:23.228Z,15.33
2023-04-23T00:04:53.095Z,15.35
2023-04-23T00:07:22.248Z,15.29
2023-04-23T00:09:52.917Z,15.13
2023-04-23T00:12:21.363Z,15.05
2023-04-23T00:14:48.518Z,14.66
2023-04-23T00:17:15.466Z,14.52
2023-04-23T00:19:42.560Z,14.45
2023-04-23T00:22:10.163Z,14.59
2023-04-23T00:24:39.501Z,14.50
2023-04-23T00:27:06.794Z,14.50
2023-04-23T00:29:33.916Z,14.32
2023-04-23T00:32:01.339Z,14.25
2023-04-23T00:34:28.527Z,14.30
2023-04-23T00:36:58.475Z,14.14
2023-04-23T00:39:25.344Z,14.17
2023-04-23T00:41:52.279Z,14.16
2023-04-23T00:44:19.328Z,14.31
2023-04-23T00:46:46.922Z,14.17
2023-04-23T00:49:14.632Z,14.20
2023-04-23T00:51:41.677Z,14.10
2023-04-23T00:54:08.580Z,14.02
2023-04-23T00:56:35.886Z,13.83
2023-04-23T00:59:03.720Z,13.90
2023-04-23T01:01:31.101Z,14.02
2023-04-23T01:03:58.934Z,13.84
2023-04-23T01:06:29.035Z,14.05
2023-04-23T01:08:56.396Z,14.30
2023-04-23T01:11:24.021Z,14.27
2023-04-23T01:13:50.958Z,14.20
2023-04-23T01:16:17.973Z,14.06
2023-04-23T01:18:45.166Z,13.21
2023-04-23T01:21:13.172Z,12.71
2023-04-23T01:23:40.973Z,12.49
2023-04-23T01:26:08.949Z,12.14
2023-04-23T01:28:36.578Z,11.96
2023-04-23T01:31:04.325Z,11.72
2023-04-23T01:33:32.097Z,11.56
2023-04-23T01:36:00.336Z,11.33
2023-04-23T01:38:31.274Z,11.33
2023-04-23T01:40:58.199Z,10.98
2023-04-23T01:43:25.539Z,11.14
2023-04-23T01:45:53.471Z,11.13
2023-04-23T01:48:21.000Z,10.98
2023-04-23T01:50:48.800Z,11.10
2023-04-23T01:53:15.803Z,11.14
2023-04-23T01:55:45.863Z,11.28
2023-04-23T01:58:13.121Z,11.39
2023-04-23T02:00:40.166Z,11.37
2023-04-23T02:03:07.308Z,11.37
2023-04-23T02:05:36.865Z,11.16
2023-04-23T02:08:03.905Z,11.26
2023-04-23T02:10:31.935Z,11.42
2023-04-23T02:13:02.193Z,11.27
2023-04-23T02:15:29.927Z,11.02
2023-04-23T02:17:56.873Z,10.94
2023-04-23T02:20:23.892Z,11.03
2023-04-23T02:22:51.299Z,10.92
2023-04-23T02:25:18.999Z,10.79
2023-04-23T02:27:45.834Z,10.84
2023-04-23T02:30:13.429Z,10.84
2023-04-23T02:32:41.972Z,10.65
2023-04-23T02:35:10.590Z,10.61
2023-04-23T02:37:37.719Z,10.47
2023-04-23T02:40:08.266Z,10.42
2023-04-23T02:42:35.383Z,10.31
2023-04-23T02:45:02.392Z,10.40
2023-04-23T02:47:32.229Z,10.47
2023-04-23T02:49:59.455Z,10.60
2023-04-23T02:52:26.307Z,10.36
2023-04-23T02:54:53.288Z,10.31
2023-04-23T02:57:23.410Z,10.11
2023-04-23T02:59:53.964Z,10.31
2023-04-23T03:02:21.183Z,10.34
2023-04-23T03:04:48.385Z,10.33
2023-04-23T03:07:17.619Z,10.38
2023-04-23T03:09:44.487Z,10.37
2023-04-23T03:12:11.341Z,10.43
2023-04-23T03:14:38.467Z,10.51
2023-04-23T03:17:06.632Z,10.42
2023-04-23T03:19:33.605Z,10.15
2023-04-23T03:22:04.100Z,10.04
2023-04-23T03:24:32.164Z,10.30
2023-04-23T03:27:00.950Z,10.31
2023-04-23T03:29:28.515Z,10.27
2023-04-23T03:31:55.514Z,10.26
2023-04-23T03:34:22.486Z,10.21
2023-04-23T03:36:49.965Z,10.30
2023-04-23T03:39:16.999Z,10.42
2023-04-23T03:41:44.004Z,10.56
2023-04-23T03:44:10.810Z,10.51
2023-04-23T03:46:38.444Z,10.42
2023-04-23T03:49:05.320Z,10.50
2023-04-23T03:51:35.743Z,10.50
2023-04-23T03:54:02.849Z,10.67
2023-04-23T03:56:30.960Z,10.73
2023-04-23T03:58:58.087Z,10.67
2023-04-23T04:01:24.885Z,10.49
2023-04-23T04:03:52.182Z,10.50
2023-04-23T04:06:19.155Z,10.47
2023-04-23T04:08:45.913Z,10.46
2023-04-23T04:11:12.712Z,10.47
2023-04-23T04:13:39.487Z,10.15
2023-04-23T04:16:06.658Z,10.06
2023-04-23T04:18:33.473Z,9.83
2023-04-23T04:21:00.866Z,9.76
2023-04-23T04:23:27.758Z,9.95
2023-04-23T04:25:56.792Z,9.99
2023-04-23T04:28:25.502Z,9.94
2023-04-23T04:30:57.814Z,10.04
2023-04-23T04:33:26.131Z,10.02
2023-04-23T04:35:53.035Z,9.85
2023-04-23T04:38:20.191Z,10.06
2023-04-23T04:40:47.104Z,9.95
2023-04-23T04:43:13.898Z,9.82
2023-04-23T04:45:40.662Z,9.70
2023-04-23T04:48:07.439Z,9.60
2023-04-23T04:50:34.600Z,9.65
2023-04-23T04:53:01.655Z,9.71
2023-04-23T04:55:29.483Z,9.89
2023-04-23T04:57:56.550Z,10.01
2023-04-23T05:00:28.167Z,10.09
2023-04-23T05:02:55.894Z,10.21
2023-04-23T05:05:24.401Z,10.21
2023-04-23T05:07:52.066Z,10.31
2023-04-23T05:10:19.046Z,10.57
2023-04-23T05:12:45.836Z,10.60
2023-04-23T05:15:14.340Z,10.52
2023-04-23T05:17:42.225Z,10.66
2023-04-23T05:20:11.179Z,10.65
2023-04-23T05:22:42.492Z,10.74
2023-04-23T05:25:12.220Z,10.95
2023-04-23T05:27:40.339Z,10.94
2023-04-23T05:30:09.780Z,11.26
2023-04-23T05:32:37.239Z,11.38
2023-04-23T05:35:04.426Z,11.77
2023-04-23T05:37:31.487Z,12.05
2023-04-23T05:39:58.606Z,12.16
2023-04-23T05:42:25.581Z,12.19
2023-04-23T05:44:52.746Z,12.07
2023-04-23T05:47:20.113Z,12.15
2023-04-23T05:49:47.104Z,12.14
2023-04-23T05:52:14.444Z,12.29
2023-04-23T05:54:42.500Z,12.27
2023-04-23T05:57:09.811Z,12.14
2023-04-23T05:59:37.243Z,12.20
2023-04-23T06:02:04.302Z,12.65
2023-04-23T06:04:31.882Z,13.46
2023-04-23T06:06:59.072Z,14.65
2023-04-23T06:09:26.213Z,15.96
2023-04-23T06:11:55.322Z,17.00
2023-04-23T06:14:22.234Z,18.06
2023-04-23T06:16:49.072Z,17.06
2023-04-23T06:19:15.850Z,18.84
2023-04-23T06:21:42.725Z,20.62
2023-04-23T06:24:09.730Z,18.48
2023-04-23T06:26:36.752Z,18.99
2023-04-23T06:29:03.975Z,19.17
2023-04-23T06:31:31.854Z,18.44
2023-04-23T06:33:59.097Z,17.55
2023-04-23T06:36:26.575Z,16.33
2023-04-23T06:38:53.474Z,16.06
2023-04-23T06:41:21.077Z,15.90
2023-04-23T06:43:48.587Z,15.33
2023-04-23T06:46:18.273Z,15.26
2023-04-23T06:48:45.207Z,15.05
2023-04-23T06:51:12.399Z,15.27
2023-04-23T06:53:42.255Z,15.45
2023-04-23T06:56:09.222Z,16.34
2023-04-23T06:58:36.456Z,16.95
2023-04-23T07:01:07.863Z,16.71
2023-04-23T07:03:34.924Z,14.68
2023-04-23T07:06:01.963Z,14.38
2023-04-23T07:08:29.344Z,13.61
2023-04-23T07:10:56.305Z,14.11
2023-04-23T07:13:24.460Z,13.85
2023-04-23T07:15:51.353Z,13.44
2023-04-23T07:18:21.329Z,13.07
2023-04-23T07:20:48.379Z,13.08
2023-04-23T07:23:15.364Z,13.55
2023-04-23T07:25:42.470Z,14.13
2023-04-23T07:28:09.320Z,14.90
2023-04-23T07:30:36.615Z,14.22
2023-04-23T07:33:03.720Z,14.89
2023-04-23T07:35:30.687Z,16.48
2023-04-23T07:37:58.294Z,17.35
2023-04-23T07:40:25.976Z,16.97
2023-04-23T07:42:52.816Z,16.86
2023-04-23T07:45:20.077Z,16.95
2023-04-23T07:47:48.053Z,16.51
2023-04-23T07:50:15.244Z,15.10
2023-04-23T07:52:44.301Z,15.04
2023-04-23T07:55:11.546Z,14.97
2023-04-23T07:57:38.522Z,14.75
2023-04-23T08:00:09.683Z,14.87
2023-04-23T08:02:36.886Z,15.30
2023-04-23T08:05:03.902Z,15.61
2023-04-23T08:07:30.884Z,16.05
2023-04-23T08:10:03.057Z,16.39
2023-04-23T08:12:31.161Z,16.44
2023-04-23T08:14:58.508Z,16.69
2023-04-23T08:17:25.653Z,16.31
2023-04-23T08:19:52.640Z,16.88
2023-04-23T08:22:22.544Z,16.50
2023-04-23T08:24:49.624Z,17.43
2023-04-23T08:27:16.662Z,18.12
2023-04-23T08:29:43.760Z,17.94
2023-04-23T08:32:10.916Z,17.90
2023-04-23T08:34:38.083Z,17.52
2023-04-23T08:37:05.189Z,17.40
2023-04-23T08:39:34.394Z,17.56
2023-04-23T08:42:10.678Z,17.32
2023-04-23T08:44:43.239Z,17.27
2023-04-23T08:47:12.706Z,19.13
2023-04-23T08:49:42.933Z,21.70
2023-04-23T08:52:22.262Z,22.53
2023-04-23T08:54:53.066Z,24.13
2023-04-23T08:57:20.213Z,24.09
2023-04-23T08:59:47.828Z,23.19
2023-04-23T09:02:16.173Z,22.28
2023-04-23T09:04:43.547Z,23.98
2023-04-23T09:07:11.784Z,23.80
2023-04-23T09:09:40.928Z,22.66
2023-04-23T09:12:09.796Z,22.60
2023-04-23T09:14:37.272Z,23.41
2023-04-23T09:17:04.467Z,23.58
2023-04-23T09:19:32.731Z,25.44
2023-04-23T09:22:02.468Z,25.41
2023-04-23T09:24:32.852Z,26.04
2023-04-23T09:26:59.840Z,26.16
2023-04-23T09:29:27.213Z,28.20
2023-04-23T09:32:08.522Z,30.14
2023-04-23T09:34:37.920Z,34.17
2023-04-23T09:37:08.201Z,35.08
2023-04-23T09:39:36.261Z,35.77
2023-04-23T09:42:05.678Z,39.22
2023-04-23T09:44:34.368Z,39.34
2023-04-23T09:47:10.488Z,40.09
2023-04-23T09:49:51.041Z,38.63
2023-04-23T09:52:18.724Z,40.99
2023-04-23T09:54:46.910Z,38.41
2023-04-23T09:57:14.211Z,38.21
2023-04-23T09:59:48.723Z,37.01
2023-04-23T10:02:19.351Z,36.46
2023-04-23T10:04:54.602Z,36.82
2023-04-23T10:07:25.880Z,38.18
2023-04-23T10:09:52.708Z,36.53
2023-04-23T10:12:41.115Z,38.41
2023-04-23T10:15:08.175Z,37.57
2023-04-23T10:17:38.878Z,37.76
2023-04-23T10:20:07.624Z,37.13
2023-04-23T10:22:36.066Z,36.61
2023-04-23T10:25:10.027Z,34.35
2023-04-23T10:27:54.052Z,34.69
2023-04-23T10:30:22.997Z,35.25
2023-04-23T10:32:50.724Z,35.04
2023-04-23T10:35:22.210Z,36.19
2023-04-23T10:37:49.717Z,36.77
2023-04-23T10:40:22.354Z,39.49
2023-04-23T10:42:50.595Z,41.58
2023-04-23T10:45:25.582Z,41.43
2023-04-23T10:47:57.661Z,39.08
2023-04-23T10:50:29.797Z,38.10
2023-04-23T10:52:58.318Z,38.33
2023-04-23T10:55:32.688Z,37.95
2023-04-23T10:58:02.716Z,39.50
2023-04-23T11:00:46.296Z,41.34
2023-04-23T11:03:41.558Z,39.56
2023-04-23T11:06:20.374Z,38.56
2023-04-23T11:08:54.640Z,36.40
2023-04-23T11:11:40.356Z,37.88
2023-04-23T11:14:16.737Z,36.24
2023-04-23T11:16:48.914Z,35.58
2023-04-23T11:19:20.557Z,36.87
2023-04-23T11:22:05.276Z,38.63
2023-04-23T11:24:47.208Z,38.47
2023-04-23T11:27:17.790Z,36.58
2023-04-23T11:29:49.431Z,37.08
2023-04-23T11:32:18.844Z,40.26
2023-04-23T11:34:47.571Z,40.84
2023-04-23T11:37:18.263Z,39.94
2023-04-23T11:39:47.781Z,37.35
2023-04-23T11:42:15.913Z,37.47
2023-04-23T11:44:46.940Z,37.59
2023-04-23T11:47:16.797Z,36.81
2023-04-23T11:49:45.250Z,37.68
2023-04-23T11:52:13.006Z,33.56
2023-04-23T11:54:43.016Z,33.55
2023-04-23T11:57:10.677Z,35.92
2023-04-23T11:59:38.016Z,33.95
2023-04-23T12:02:05.179Z,34.77
2023-04-23T12:04:33.550Z,33.04
2023-04-23T12:07:00.901Z,30.48
2023-04-23T12:09:29.506Z,30.66
2023-04-23T12:11:58.652Z,29.24
2023-04-23T12:14:30.890Z,28.15
2023-04-23T12:16:59.716Z,28.48
2023-04-23T12:19:29.417Z,28.88
2023-04-23T12:22:04.618Z,27.76
2023-04-23T12:24:49.400Z,25.69
2023-04-23T12:27:20.604Z,24.02
2023-04-23T12:29:51.557Z,22.20
2023-04-23T12:32:19.810Z,21.89
2023-04-23T12:34:56.650Z,22.40
2023-04-23T12:37:31.006Z,22.30
2023-04-23T12:39:59.757Z,21.74
2023-04-23T12:42:26.815Z,22.38
2023-04-23T12:44:55.975Z,22.98
2023-04-23T12:47:23.362Z,23.16
2023-04-23T12:49:53.713Z,22.89
2023-04-23T12:52:21.237Z,22.86
2023-04-23T12:54:52.386Z,22.11
2023-04-23T12:57:23.535Z,22.18
2023-04-23T12:59:51.015Z,22.38
2023-04-23T13:02:18.224Z,22.34
2023-04-23T13:04:45.122Z,21.60
2023-04-23T13:07:12.082Z,21.51
2023-04-23T13:09:39.028Z,21.90
2023-04-23T13:12:06.087Z,21.64
2023-04-23T13:14:32.932Z,21.87
2023-04-23T13:16:59.923Z,21.48
2023-04-23T13:19:27.222Z,21.40
2023-04-23T13:21:54.216Z,21.00
2023-04-23T13:24:21.353Z,20.83
2023-04-23T13:26:48.444Z,21.07
2023-04-23T13:29:16.362Z,22.28
2023-04-23T13:31:43.543Z,23.45
2023-04-23T13:34:10.713Z,23.35
2023-04-23T13:36:37.916Z,22.11
2023-04-23T13:39:04.892Z,21.30
2023-04-23T13:41:32.321Z,21.38
2023-04-23T13:43:59.880Z,22.20
2023-04-23T13:46:27.170Z,22.13
2023-04-23T13:48:56.679Z,21.12
2023-04-23T13:51:34.802Z,20.81
2023-04-23T13:54:03.516Z,21.07
2023-04-23T13:56:31.434Z,22.03
2023-04-23T13:59:18.751Z,22.56
2023-04-23T14:01:54.133Z,22.22
2023-04-23T14:04:24.315Z,21.30
2023-04-23T14:06:51.447Z,21.25
2023-04-23T14:09:19.401Z,21.44
2023-04-23T14:11:47.494Z,21.62
2023-04-23T14:14:14.262Z,21.51
2023-04-23T14:16:41.321Z,21.32
2023-04-23T14:19:08.409Z,20.55
2023-04-23T14:21:36.446Z,20.13
2023-04-23T14:24:10.854Z,20.03
2023-04-23T14:26:47.861Z,19.81
2023-04-23T14:29:38.786Z,19.70
2023-04-23T14:32:08.888Z,18.79
2023-04-23T14:34:36.673Z,18.56
2023-04-23T14:37:04.448Z,18.80
2023-04-23T14:39:31.403Z,19.32
2023-04-23T14:41:58.388Z,20.27
2023-04-23T14:44:27.206Z,20.46
2023-04-23T14:46:54.814Z,20.50
2023-04-23T14:49:22.206Z,19.79
2023-04-23T14:51:55.645Z,18.86
2023-04-23T14:54:23.080Z,17.92
2023-04-23T14:56:51.311Z,17.68
2023-04-23T14:59:18.559Z,17.39
2023-04-23T15:01:45.617Z,17.10
2023-04-23T15:04:12.908Z,17.23
2023-04-23T15:06:41.094Z,16.96
2023-04-23T15:09:08.676Z,17.12
2023-04-23T15:11:35.758Z,17.09
2023-04-23T15:14:06.846Z,17.06
2023-04-23T15:16:48.123Z,17.43
2023-04-23T15:19:20.406Z,17.22
2023-04-23T15:21:48.409Z,16.87
2023-04-23T15:24:16.153Z,17.26
2023-04-23T15:26:44.016Z,17.23
2023-04-23T15:29:11.017Z,16.96
2023-04-23T15:31:39.579Z,17.07
2023-04-23T15:34:09.490Z,16.89
2023-04-23T15:36:38.153Z,16.90
2023-04-23T15:39:07.689Z,17.04
2023-04-23T15:41:39.368Z,17.12
2023-04-23T15:44:13.475Z,17.49
2023-04-23T15:46:40.953Z,17.37
2023-04-23T15:49:08.121Z,17.53
2023-04-23T15:51:36.596Z,17.68
2023-04-23T15:54:03.440Z,17.60
2023-04-23T15:56:32.762Z,17.69
2023-04-23T15:59:02.163Z,17.87
2023-04-23T16:01:29.979Z,18.01
2023-04-23T16:04:08.638Z,17.82
2023-04-23T16:06:37.715Z,17.42
2023-04-23T16:09:07.740Z,17.13
2023-04-23T16:11:38.838Z,16.98
2023-04-23T16:14:06.690Z,17.18
2023-04-23T16:16:33.878Z,16.75
2023-04-23T16:19:03.111Z,17.05
2023-04-23T16:21:31.576Z,17.22
2023-04-23T16:23:58.663Z,17.25
2023-04-23T16:26:25.733Z,17.42
2023-04-23T16:29:05.749Z,17.57
2023-04-23T16:31:38.974Z,17.76
2023-04-23T16:34:06.456Z,17.90
2023-04-23T16:36:33.406Z,17.67
2023-04-23T16:39:00.178Z,17.44
2023-04-23T16:41:27.522Z,16.97
2023-04-23T16:43:55.710Z,16.78
2023-04-23T16:46:22.772Z,16.76
2023-04-23T16:48:49.809Z,16.58
2023-04-23T16:51:17.179Z,16.68
2023-04-23T16:53:44.189Z,16.47
2023-04-23T16:56:13.823Z,16.33
2023-04-23T16:58:40.808Z,16.54
2023-04-23T17:01:08.116Z,16.09
2023-04-23T17:03:36.713Z,16.18
2023-04-23T17:06:20.953Z,15.97
2023-04-23T17:08:48.044Z,15.97
2023-04-23T17:11:15.101Z,15.83
2023-04-23T17:13:45.003Z,15.97
2023-04-23T17:16:12.427Z,15.91
2023-04-23T17:18:39.408Z,15.91
2023-04-23T17:21:06.338Z,16.05
2023-04-23T17:23:33.182Z,16.12
2023-04-23T17:26:03.052Z,16.26
2023-04-23T17:28:32.343Z,16.38
2023-04-23T17:30:59.468Z,16.39
2023-04-23T17:33:26.918Z,16.46
2023-04-23T17:35:55.284Z,16.24
2023-04-23T17:38:22.718Z,16.05
2023-04-23T17:40:50.967Z,16.18
2023-04-23T17:43:19.429Z,16.08
2023-04-23T17:45:47.906Z,16.00
2023-04-23T17:48:15.777Z,15.93
2023-04-23T17:50:43.583Z,15.80
2023-04-23T17:53:11.009Z,15.78
2023-04-23T17:55:37.809Z,15.77
2023-04-23T17:58:09.296Z,15.99
2023-04-23T18:00:37.902Z,15.83
2023-04-23T18:03:05.549Z,16.07
2023-04-23T18:05:32.562Z,15.94
2023-04-23T18:07:59.972Z,15.77
2023-04-23T18:10:27.068Z,15.73
2023-04-23T18:12:56.272Z,15.44
2023-04-23T18:15:23.327Z,15.23
2023-04-23T18:17:50.650Z,14.86
2023-04-23T18:20:17.620Z,14.66
2023-04-23T18:22:44.637Z,14.38
2023-04-23T18:25:12.861Z,14.25
2023-04-23T18:27:41.860Z,14.09
2023-04-23T18:30:09.255Z,13.76
2023-04-23T18:32:41.972Z,13.53
2023-04-23T18:35:10.259Z,13.36
2023-04-23T18:37:42.753Z,13.31
2023-04-23T18:40:11.098Z,13.25
2023-04-23T18:42:38.052Z,13.30
2023-04-23T18:45:05.431Z,13.09
2023-04-23T18:47:38.776Z,12.78
2023-04-23T18:50:31.316Z,12.90
2023-04-23T18:52:58.291Z,13.01
2023-04-23T18:55:25.319Z,12.90
2023-04-23T18:57:56.266Z,12.29
2023-04-23T19:00:23.459Z,12.51
2023-04-23T19:02:50.813Z,12.38
2023-04-23T19:05:18.143Z,12.45
2023-04-23T19:07:45.167Z,12.44
2023-04-23T19:10:12.813Z,12.17
2023-04-23T19:12:39.758Z,12.35
2023-04-23T19:15:07.223Z,12.22
2023-04-23T19:17:35.309Z,12.27
2023-04-23T19:20:02.368Z,12.27
2023-04-23T19:22:29.374Z,12.41
2023-04-23T19:24:59.040Z,12.36
2023-04-23T19:27:26.366Z,12.64
2023-04-23T19:29:57.085Z,12.65
2023-04-23T19:32:24.852Z,12.38
2023-04-23T19:34:51.652Z,12.44
2023-04-23T19:37:18.838Z,12.29
2023-04-23T19:39:45.681Z,12.13
2023-04-23T19:42:12.613Z,11.85
2023-04-23T19:44:39.632Z,11.98
2023-04-23T19:47:09.191Z,11.25
2023-04-23T19:49:36.141Z,11.49
2023-04-23T19:52:04.499Z,11.43
2023-04-23T19:54:31.433Z,11.53
2023-04-23T19:56:58.518Z,11.60
2023-04-23T19:59:26.015Z,11.74
2023-04-23T20:01:53.224Z,11.83
2023-04-23T20:04:25.325Z,11.79
2023-04-23T20:06:52.602Z,11.89
2023-04-23T20:09:21.327Z,11.84
2023-04-23T20:11:48.650Z,11.69
2023-04-23T20:14:15.668Z,11.62
2023-04-23T20:16:43.185Z,11.63
2023-04-23T20:19:11.275Z,11.51
2023-04-23T20:21:39.437Z,11.59
2023-04-23T20:24:11.109Z,11.58
2023-04-23T20:26:39.566Z,11.64
2023-04-23T20:29:07.024Z,11.60
2023-04-23T20:31:34.268Z,11.64
2023-04-23T20:34:01.569Z,11.80
2023-04-23T20:36:30.803Z,12.24
2023-04-23T20:38:59.199Z,12.13
2023-04-23T20:41:31.782Z,12.20
2023-04-23T20:43:59.610Z,12.55
2023-04-23T20:46:30.320Z,12.38
2023-04-23T20:48:58.538Z,12.49
2023-04-23T20:51:25.716Z,12.39
2023-04-23T20:53:52.890Z,12.34
2023-04-23T20:56:20.174Z,12.27
2023-04-23T20:58:47.441Z,12.39
2023-04-23T21:01:14.354Z,12.08
2023-04-23T21:03:41.614Z,12.07
2023-04-23T21:06:11.585Z,12.42
2023-04-23T21:08:41.573Z,12.55
2023-04-23T21:11:14.915Z,12.38
2023-04-23T21:13:44.613Z,12.37
2023-04-23T21:16:12.057Z,12.27
2023-04-23T21:18:40.020Z,12.28
2023-04-23T21:21:08.281Z,12.52
2023-04-23T21:23:38.430Z,12.38
2023-04-23T21:26:05.997Z,12.31
2023-04-23T21:28:32.975Z,11.94
2023-04-23T21:31:07.924Z,12.21
2023-04-23T21:33:34.912Z,12.24
2023-04-23T21:36:01.826Z,12.29
2023-04-23T21:38:28.846Z,12.21
2023-04-23T21:40:55.901Z,12.16
2023-04-23T21:43:24.646Z,11.96
2023-04-23T21:45:51.982Z,11.99
2023-04-23T21:48:19.097Z,12.04
2023-04-23T21:50:46.118Z,12.12
2023-04-23T21:53:13.381Z,11.99
2023-04-23T21:55:40.233Z,11.86
2023-04-23T21:58:17.099Z,11.83
2023-04-23T22:00:45.429Z,11.95
2023-04-23T22:03:16.870Z,11.83
2023-04-23T22:05:57.755Z,11.86
2023-04-23T22:08:25.245Z,11.84
2023-04-23T22:10:52.256Z,11.78
2023-04-23T22:13:20.977Z,11.56
2023-04-23T22:15:51.485Z,11.54
2023-04-23T22:18:18.371Z,11.48
2023-04-23T22:20:48.545Z,11.64
2023-04-23T22:23:15.870Z,11.56
2023-04-23T22:25:42.989Z,11.73
2023-04-23T22:28:09.911Z,11.96
2023-04-23T22:30:37.160Z,11.80
2023-04-23T22:33:04.907Z,12.07
2023-04-23T22:35:32.458Z,12.10
2023-04-23T22:37:59.645Z,11.97
2023-04-23T22:40:26.527Z,12.07
2023-04-23T22:42:53.530Z,12.06
2023-04-23T22:45:20.572Z,11.86
2023-04-23T22:47:48.429Z,12.24
2023-04-23T22:50:15.472Z,12.09
2023-04-23T22:52:42.394Z,11.85
2023-04-23T22:55:14.999Z,11.65
2023-04-23T22:57:41.837Z,11.46
2023-04-23T23:00:11.523Z,11.37
2023-04-23T23:02:38.987Z,11.41
2023-04-23T23:05:06.818Z,11.26
2023-04-23T23:07:33.642Z,11.11
2023-04-23T23:10:00.545Z,11.01
2023-04-23T23:12:27.591Z,11.25
2023-04-23T23:14:54.373Z,11.48
2023-04-23T23:17:21.232Z,11.35
2023-04-23T23:19:48.103Z,11.32
2023-04-23T23:22:15.063Z,11.42
2023-04-23T23:24:42.266Z,11.64
2023-04-23T23:27:09.346Z,11.69
2023-04-23T23:29:36.549Z,11.49
2023-04-23T23:32:04.288Z,11.59
2023-04-23T23:34:31.281Z,11.27
2023-04-23T23:36:59.073Z,11.27
2023-04-23T23:39:27.613Z,11.12
2023-04-23T23:41:54.423Z,11.26
2023-04-23T23:44:22.441Z,10.98
2023-04-23T23:46:50.446Z,11.25
2023-04-23T23:49:17.311Z,10.76
2023-04-23T23:51:44.516Z,11.10
2023-04-23T23:54:14.559Z,11.06
2023-04-23T23:56:41.866Z,10.72
2023-04-23T23:59:08.989Z,11.04
